Time;durP1;ratioP1;P1;durP2;ratioP2;P2;SDS_P1;SDS_P2;PMS_P1;PMS_P2;Temp;Humidity;BMP_temperature;BMP_pressure;BME280_temperature;BME280_humidity;BME280_pressure;Samples;Min_cycle;Max_cycle;Signal;HPM_P1;HPM_P2
2023/07/10 00:02:20;;;;;;;8.67;6.37;;;20.70;99.90;;;;;;5053865;28;21032;-60
2023/07/10 00:04:47;;;;;;;7.53;5.80;;;20.70;99.90;;;;;;5053929;28;20447;-61
2023/07/10 00:07:13;;;;;;;6.70;6.03;;;20.70;99.90;;;;;;5053304;28;20543;-60
2023/07/10 00:09:40;;;;;;;7.40;5.80;;;20.70;99.90;;;;;;5053112;28;20469;-60
2023/07/10 00:12:14;;;;;;;6.57;5.10;;;20.70;99.90;;;;;;5053660;28;20518;-61
2023/07/10 00:14:42;;;;;;;6.37;5.63;;;20.70;99.90;;;;;;5053528;28;20428;-61
2023/07/10 00:17:10;;;;;;;7.40;5.53;;;20.60;99.90;;;;;;5053354;28;21009;-59
2023/07/10 00:19:37;;;;;;;6.77;5.70;;;20.60;99.90;;;;;;5053740;28;20468;-60
2023/07/10 00:22:04;;;;;;;7.07;6.37;;;20.60;99.90;;;;;;5053944;28;20445;-59
2023/07/10 00:24:31;;;;;;;10.17;6.33;;;20.60;99.90;;;;;;5053475;28;20440;-60
2023/07/10 00:26:58;;;;;;;8.10;5.73;;;20.60;99.90;;;;;;5054660;28;20938;-61
2023/07/10 00:29:31;;;;;;;7.43;5.60;;;20.60;99.90;;;;;;5056874;28;20990;-60
2023/07/10 00:31:58;;;;;;;6.00;4.77;;;20.60;99.90;;;;;;5057226;28;20477;-59
2023/07/10 00:34:26;;;;;;;7.17;5.57;;;20.60;99.90;;;;;;5056986;28;20816;-60
2023/07/10 00:40:22;;;;;;;6.50;5.63;;;20.60;99.90;;;;;;5057378;28;20438;-60
2023/07/10 00:42:53;;;;;;;9.03;5.90;;;20.60;99.90;;;;;;5056654;28;20898;-62
2023/07/10 00:45:20;;;;;;;6.00;4.90;;;20.60;99.90;;;;;;5056511;28;20435;-61
2023/07/10 00:47:57;;;;;;;6.37;5.67;;;20.70;99.90;;;;;;5056895;28;20470;-60
2023/07/10 00:50:33;;;;;;;5.90;4.80;;;20.60;99.90;;;;;;5056928;28;20432;-60
2023/07/10 00:53:02;;;;;;;5.97;5.40;;;20.70;99.90;;;;;;5056815;28;20432;-59
2023/07/10 00:55:33;;;;;;;6.57;5.20;;;20.60;99.90;;;;;;5056814;28;20444;-60
2023/07/10 00:58:16;;;;;;;6.67;5.93;;;20.60;99.90;;;;;;5081667;22;20495;-57
2023/07/10 01:01:01;;;;;;;8.53;6.77;;;20.70;99.90;;;;;;5076557;28;20435;-57
2023/07/10 01:03:28;;;;;;;7.13;5.80;;;20.60;99.90;;;;;;5076281;28;20766;-58
2023/07/10 01:05:58;;;;;;;6.13;5.53;;;20.60;99.90;;;;;;5075747;28;20933;-57
2023/07/10 01:08:25;;;;;;;7.70;5.40;;;20.60;99.90;;;;;;5075985;28;20459;-58
2023/07/10 01:10:52;;;;;;;6.37;5.23;;;20.60;99.90;;;;;;5075855;28;20443;-57
2023/07/10 01:13:19;;;;;;;7.60;5.23;;;20.60;99.90;;;;;;5076203;28;20439;-58
2023/07/10 01:15:46;;;;;;;6.67;5.73;;;20.60;99.90;;;;;;5076049;28;20470;-57
2023/07/10 01:18:14;;;;;;;7.20;6.50;;;20.60;99.90;;;;;;5075599;28;20566;-58
2023/07/10 01:20:45;;;;;;;8.60;6.30;;;20.70;99.90;;;;;;5075323;28;20454;-57
2023/07/10 01:23:13;;;;;;;11.40;6.13;;;20.60;99.90;;;;;;5075741;28;20428;-57
2023/07/10 01:25:44;;;;;;;8.37;6.27;;;20.60;99.90;;;;;;5076067;28;20448;-57
2023/07/10 01:28:16;;;;;;;6.93;6.30;;;20.60;99.90;;;;;;5075655;28;20513;-56
2023/07/10 01:30:46;;;;;;;8.93;6.10;;;20.50;99.90;;;;;;5075839;28;20777;-57
2023/07/10 01:33:17;;;;;;;8.60;6.50;;;20.50;99.90;;;;;;5075535;28;20964;-57
2023/07/10 01:35:46;;;;;;;7.70;5.83;;;20.50;99.90;;;;;;5075732;28;20527;-57
2023/07/10 01:38:15;;;;;;;7.13;6.43;;;20.40;99.90;;;;;;5075795;28;20820;-58
2023/07/10 01:40:46;;;;;;;9.13;6.57;;;20.50;99.90;;;;;;5075413;28;20445;-57
2023/07/10 01:43:13;;;;;;;10.10;6.87;;;20.50;99.90;;;;;;5075245;28;20424;-58
2023/07/10 01:45:42;;;;;;;11.27;6.70;;;20.50;99.90;;;;;;5075915;28;20446;-58
2023/07/10 01:48:10;;;;;;;8.63;7.10;;;20.50;99.90;;;;;;5075196;28;20513;-57
2023/07/10 01:50:37;;;;;;;9.93;6.20;;;20.50;99.90;;;;;;5075025;28;20920;-57
2023/07/10 01:53:04;;;;;;;9.93;7.13;;;20.60;99.90;;;;;;5075232;28;20439;-56
2023/07/10 01:55:38;;;;;;;8.87;6.60;;;20.60;99.90;;;;;;5075084;28;20471;-55
2023/07/10 01:58:05;;;;;;;7.83;7.03;;;20.60;99.90;;;;;;5074783;28;20553;-56
2023/07/10 02:00:31;;;;;;;9.43;7.33;;;20.60;99.90;;;;;;5075197;28;20433;-55
2023/07/10 02:02:58;;;;;;;7.27;6.67;;;20.60;99.90;;;;;;5074958;28;20446;-55
2023/07/10 02:05:25;;;;;;;8.50;7.70;;;20.60;99.90;;;;;;5075000;28;20447;-56
2023/07/10 02:07:52;;;;;;;8.90;6.90;;;20.60;99.90;;;;;;5074858;28;20443;-56
2023/07/10 02:10:18;;;;;;;11.03;7.17;;;20.60;99.90;;;;;;5074692;28;20444;-56
2023/07/10 02:12:47;;;;;;;8.43;7.63;;;20.60;99.90;;;;;;5074808;28;20465;-56
2023/07/10 02:15:14;;;;;;;8.27;7.40;;;20.60;99.90;;;;;;5074589;28;20455;-57
2023/07/10 02:17:40;;;;;;;9.73;7.67;;;20.60;99.90;;;;;;5074619;28;20489;-56
2023/07/10 02:20:08;;;;;;;7.03;6.43;;;20.60;99.90;;;;;;5074635;28;20565;-56
2023/07/10 02:22:34;;;;;;;8.17;7.30;;;20.60;99.90;;;;;;5074530;28;20446;-56
2023/07/10 02:25:01;;;;;;;8.50;7.20;;;20.60;99.90;;;;;;5074634;28;20439;-58
2023/07/10 02:27:28;;;;;;;8.63;7.37;;;20.70;99.90;;;;;;5074639;28;20446;-56
2023/07/10 02:29:56;;;;;;;7.63;6.87;;;20.70;99.90;;;;;;5074369;28;20474;-56
2023/07/10 02:32:23;;;;;;;8.63;7.77;;;20.70;99.90;;;;;;5074338;28;20444;-56
2023/07/10 02:34:50;;;;;;;11.83;7.70;;;20.80;99.90;;;;;;5074514;28;20450;-57
2023/07/10 02:37:17;;;;;;;9.03;7.47;;;20.70;99.90;;;;;;5075190;28;20479;-57
2023/07/10 02:39:43;;;;;;;9.90;7.20;;;20.80;99.90;;;;;;5074617;28;20469;-56
2023/07/10 02:42:10;;;;;;;9.90;8.30;;;20.70;99.90;;;;;;5075157;28;20797;-56
2023/07/10 02:44:37;;;;;;;7.83;7.13;;;20.70;99.90;;;;;;5074344;28;20842;-57
2023/07/10 02:47:06;;;;;;;11.50;8.00;;;20.70;99.90;;;;;;5073992;28;20497;-56
2023/07/10 02:49:33;;;;;;;9.03;7.53;;;20.60;99.90;;;;;;5074087;28;20467;-57
2023/07/10 02:52:00;;;;;;;8.77;7.73;;;20.60;99.90;;;;;;5073241;28;20447;-58
2023/07/10 02:54:26;;;;;;;8.80;7.90;;;20.60;99.90;;;;;;5073575;28;20447;-56
2023/07/10 02:56:53;;;;;;;10.47;7.60;;;20.60;99.90;;;;;;5073067;28;20957;-57
2023/07/10 02:59:20;;;;;;;8.87;7.23;;;20.60;99.90;;;;;;5073204;28;20474;-57
2023/07/10 03:01:47;;;;;;;7.90;7.20;;;20.60;99.90;;;;;;5074071;28;20454;-57
2023/07/10 03:04:15;;;;;;;9.70;8.00;;;20.60;99.90;;;;;;5073868;28;20480;-57
2023/07/10 03:06:42;;;;;;;11.40;7.87;;;20.60;99.90;;;;;;5073894;28;20439;-57
2023/07/10 03:09:09;;;;;;;10.00;6.87;;;20.60;99.90;;;;;;5073648;28;20459;-59
2023/07/10 03:11:36;;;;;;;11.57;7.90;;;20.60;99.90;;;;;;5073596;28;20454;-57
2023/07/10 03:14:03;;;;;;;10.33;9.03;;;20.60;99.90;;;;;;5073644;28;20450;-57
2023/07/10 03:16:29;;;;;;;8.10;7.33;;;20.50;99.90;;;;;;5073128;28;21001;-57
2023/07/10 03:18:56;;;;;;;10.00;7.73;;;20.50;99.90;;;;;;5073237;28;20478;-57
2023/07/10 03:21:25;;;;;;;8.10;7.13;;;20.50;99.90;;;;;;5073303;28;20530;-57
2023/07/10 03:23:52;;;;;;;8.33;7.20;;;20.50;99.90;;;;;;5073464;28;20444;-56
2023/07/10 03:26:19;;;;;;;12.10;7.13;;;20.40;99.90;;;;;;5073518;28;20447;-57
2023/07/10 03:28:46;;;;;;;10.60;6.77;;;20.40;99.90;;;;;;5073353;28;20466;-56
2023/07/10 03:31:13;;;;;;;8.37;6.50;;;20.40;99.90;;;;;;5073803;28;20447;-56
2023/07/10 03:33:39;;;;;;;7.83;6.73;;;20.40;99.90;;;;;;5073150;28;20443;-56
2023/07/10 03:36:08;;;;;;;14.00;8.20;;;20.40;99.90;;;;;;5073297;28;20440;-57
2023/07/10 03:38:36;;;;;;;7.47;6.60;;;20.40;99.90;;;;;;5073233;28;20483;-54
2023/07/10 03:41:04;;;;;;;11.67;6.70;;;20.40;99.90;;;;;;5073076;28;20814;-57
2023/07/10 03:43:31;;;;;;;9.00;6.57;;;20.40;99.90;;;;;;5072970;28;20446;-57
2023/07/10 03:45:58;;;;;;;13.63;6.50;;;20.40;99.90;;;;;;5072770;28;20447;-56
2023/07/10 03:48:25;;;;;;;12.67;6.80;;;20.40;99.90;;;;;;5072803;28;20459;-56
2023/07/10 03:50:52;;;;;;;7.03;6.00;;;20.40;99.90;;;;;;5072985;28;20440;-56
2023/07/10 03:53:19;;;;;;;9.20;6.40;;;20.40;99.90;;;;;;5072863;28;20451;-56
2023/07/10 03:55:51;;;;;;;8.60;6.47;;;20.40;99.90;;;;;;5072957;28;20450;-56
2023/07/10 03:58:20;;;;;;;6.03;5.27;;;20.40;99.90;;;;;;5072577;28;20870;-56
2023/07/10 04:00:47;;;;;;;7.20;5.97;;;20.50;99.90;;;;;;5073131;28;20435;-55
2023/07/10 04:03:13;;;;;;;10.60;5.83;;;20.50;99.90;;;;;;5073235;28;20443;-57
2023/07/10 04:05:42;;;;;;;10.50;6.43;;;20.50;99.90;;;;;;5073795;28;20454;-56
2023/07/10 04:08:08;;;;;;;11.20;6.13;;;20.50;99.90;;;;;;5072598;28;20475;-57
2023/07/10 04:11:56;;;;;;;11.63;6.77;;;20.50;99.90;;;;;;5173378;27;21040;-57
2023/07/10 04:14:23;;;;;;;8.20;6.77;;;20.50;99.90;;;;;;5172571;27;20529;-57
2023/07/10 04:16:52;;;;;;;13.73;8.27;;;20.50;99.90;;;;;;5172843;27;20450;-58
2023/07/10 04:19:19;;;;;;;8.27;6.40;;;20.40;99.90;;;;;;5172280;27;20562;-58
2023/07/10 04:21:46;;;;;;;10.43;6.90;;;20.40;99.90;;;;;;5172581;27;20435;-56
2023/07/10 04:24:13;;;;;;;9.77;7.30;;;20.40;99.90;;;;;;5172485;27;20442;-56
2023/07/10 04:26:40;;;;;;;9.73;6.60;;;20.40;99.90;;;;;;5172501;27;20447;-58
2023/07/10 04:29:10;;;;;;;9.33;7.80;;;20.30;99.90;;;;;;5172411;27;20564;-57
2023/07/10 04:31:37;;;;;;;11.47;6.70;;;20.30;99.90;;;;;;5172442;27;20457;-57
2023/07/10 04:34:04;;;;;;;12.03;9.33;;;20.30;99.90;;;;;;5172093;27;20821;-57
2023/07/10 04:36:30;;;;;;;11.43;8.20;;;20.30;99.90;;;;;;5172099;27;20442;-56
2023/07/10 04:38:57;;;;;;;9.77;7.90;;;20.30;99.90;;;;;;5172054;27;20769;-59
2023/07/10 04:41:25;;;;;;;11.90;8.67;;;20.30;99.90;;;;;;5172295;27;20441;-56
2023/07/10 04:43:52;;;;;;;17.77;8.73;;;20.30;99.90;;;;;;5172130;27;20435;-56
2023/07/10 04:46:21;;;;;;;15.00;8.80;;;20.40;99.90;;;;;;5172134;27;20443;-57
2023/07/10 04:48:48;;;;;;;15.90;10.90;;;20.40;99.90;;;;;;5172113;27;20477;-57
2023/07/10 04:51:17;;;;;;;17.95;10.85;;;20.40;99.90;;;;;;5172552;27;20475;-58
2023/07/10 04:53:44;;;;;;;14.80;10.70;;;20.40;99.90;;;;;;5172269;27;20288;-58
2023/07/10 04:56:12;;;;;;;13.48;11.15;;;20.50;99.90;;;;;;5171852;27;20924;-58
2023/07/10 04:58:50;;;;;;;12.47;10.90;;;20.60;99.90;;;;;;5171660;27;20242;-57
2023/07/10 05:01:17;;;;;;;17.52;11.30;;;20.60;99.90;;;;;;5171474;27;20435;-59
2023/07/10 05:03:46;;;;;;;12.93;10.47;;;20.50;99.90;;;;;;5171910;27;20204;-57
2023/07/10 05:06:13;;;;;;;10.88;9.85;;;20.60;99.90;;;;;;5171591;27;20443;-57
2023/07/10 05:08:40;;;;;;;15.00;10.80;;;20.60;99.90;;;;;;5171674;27;20317;-59
2023/07/10 05:11:07;;;;;;;12.00;10.80;;;20.60;99.90;;;;;;5171207;27;20487;-55
2023/07/10 05:13:33;;;;;;;15.70;12.13;;;20.60;99.90;;;;;;5171768;27;20442;-57
2023/07/10 05:16:00;;;;;;;15.53;13.70;;;20.60;99.90;;;;;;5171111;27;20458;-57
2023/07/10 05:18:29;;;;;;;17.10;14.37;;;20.60;99.90;;;;;;5171199;27;20461;-57
2023/07/10 05:20:58;;;;;;;26.10;15.73;;;20.50;99.90;;;;;;5171252;27;20444;-57
2023/07/10 05:23:26;;;;;;;16.60;14.10;;;20.50;99.90;;;;;;5156687;27;20439;-57
2023/07/10 05:26:02;;;;;;;18.30;14.63;;;20.40;99.90;;;;;;5157730;27;20209;-57
2023/07/10 05:28:29;;;;;;;20.92;15.88;;;20.40;99.90;;;;;;5157533;27;20455;-56
2023/07/10 05:30:59;;;;;;;22.80;14.87;;;20.40;99.90;;;;;;5157103;27;20210;-58
2023/07/10 05:33:26;;;;;;;17.73;15.03;;;20.40;99.90;;;;;;5157597;27;20428;-57
2023/07/10 05:35:54;;;;;;;16.30;14.60;;;20.40;99.90;;;;;;5157349;27;20446;-59
2023/07/10 05:38:27;;;;;;;18.10;14.70;;;20.30;99.90;;;;;;5157514;27;20309;-59
2023/07/10 05:40:54;;;;;;;18.65;15.35;;;20.30;99.90;;;;;;5157343;27;20472;-58
2023/07/10 05:43:21;;;;;;;15.83;14.17;;;20.30;99.90;;;;;;5156923;27;20682;-57
2023/07/10 05:45:49;;;;;;;16.97;14.17;;;20.30;99.90;;;;;;5156810;27;20929;-57
2023/07/10 05:48:16;;;;;;;18.97;14.60;;;20.30;99.90;;;;;;5156643;27;20475;-57
2023/07/10 05:50:45;;;;;;;15.48;13.10;;;20.30;99.90;;;;;;5157410;27;20480;-57
2023/07/10 05:53:12;;;;;;;20.30;13.15;;;20.30;99.90;;;;;;5156903;27;20290;-57
2023/07/10 05:55:44;;;;;;;14.93;13.43;;;20.30;99.90;;;;;;5156536;27;20682;-58
2023/07/10 05:58:10;;;;;;;13.73;12.33;;;20.20;99.90;;;;;;5156774;27;20460;-56
2023/07/10 06:00:37;;;;;;;16.58;12.52;;;20.20;99.90;;;;;;5157005;27;20443;-58
2023/07/10 06:03:04;;;;;;;14.70;13.17;;;20.20;99.90;;;;;;5156819;27;20465;-56
2023/07/10 06:05:31;;;;;;;14.60;12.90;;;20.20;99.90;;;;;;5156892;27;20453;-56
2023/07/10 06:07:57;;;;;;;14.83;13.30;;;20.10;99.90;;;;;;5156790;27;20444;-57
2023/07/10 06:10:24;;;;;;;17.40;14.07;;;20.10;99.90;;;;;;5156246;27;21021;-57
2023/07/10 06:12:52;;;;;;;18.57;15.30;;;20.00;99.90;;;;;;5156405;27;20953;-55
2023/07/10 06:15:19;;;;;;;18.80;16.47;;;20.00;99.90;;;;;;5156412;27;20522;-55
2023/07/10 06:17:46;;;;;;;14.80;13.20;;;19.90;99.90;;;;;;5156414;27;20941;-56
2023/07/10 06:20:15;;;;;;;14.97;12.47;;;19.90;99.90;;;;;;5156676;27;20445;-57
2023/07/10 06:22:42;;;;;;;14.87;13.23;;;19.90;99.90;;;;;;5156194;27;20447;-57
2023/07/10 06:25:09;;;;;;;13.95;12.48;;;20.00;99.90;;;;;;5157421;27;20879;-56
2023/07/10 06:27:36;;;;;;;14.63;12.10;;;20.00;99.90;;;;;;5156699;27;20450;-55
2023/07/10 06:30:06;;;;;;;12.27;11.03;;;20.10;99.90;;;;;;5156423;27;20463;-55
2023/07/10 06:32:34;;;;;;;14.30;12.33;;;20.10;99.90;;;;;;5156495;27;20497;-56
2023/07/10 06:35:00;;;;;;;13.93;12.30;;;20.20;99.90;;;;;;5155025;27;20996;-56
2023/07/10 06:37:27;;;;;;;14.00;12.43;;;20.30;99.90;;;;;;5156560;27;20444;-56
2023/07/10 06:40:05;;;;;;;15.67;14.07;;;20.30;99.90;;;;;;5156321;27;20467;-55
2023/07/10 06:42:32;;;;;;;19.93;14.93;;;20.30;99.90;;;;;;5156028;27;20435;-58
2023/07/10 06:44:59;;;;;;;16.77;13.60;;;20.30;99.90;;;;;;5155514;27;20853;-56
2023/07/10 06:47:27;;;;;;;16.67;14.53;;;20.30;99.90;;;;;;5155894;27;20462;-57
2023/07/10 06:49:53;;;;;;;19.70;13.52;;;20.20;99.90;;;;;;5155480;27;20465;-55
2023/07/10 06:52:20;;;;;;;16.43;13.50;;;20.10;99.90;;;;;;5156059;27;20218;-56
2023/07/10 06:54:47;;;;;;;22.40;15.77;;;20.10;99.90;;;;;;5155934;27;20437;-57
2023/07/10 06:57:14;;;;;;;17.93;15.27;;;20.20;99.90;;;;;;5155531;27;21004;-57
2023/07/10 06:59:41;;;;;;;19.50;16.00;;;20.20;99.90;;;;;;5123684;22;20586;-59
2023/07/10 07:02:12;;;;;;;20.47;14.83;;;20.10;99.90;;;;;;5074338;28;20444;-60
2023/07/10 07:04:41;;;;;;;17.07;15.20;;;20.10;99.90;;;;;;5073961;28;20424;-60
2023/07/10 07:07:08;;;;;;;17.70;14.00;;;20.20;99.90;;;;;;5073683;28;20454;-59
2023/07/10 07:09:35;;;;;;;15.50;13.87;;;20.30;99.90;;;;;;5074518;28;20472;-59
2023/07/10 07:12:02;;;;;;;24.50;15.03;;;20.20;99.90;;;;;;5074226;28;20486;-58
2023/07/10 07:14:29;;;;;;;16.70;14.83;;;20.20;99.90;;;;;;5074161;28;20444;-59
2023/07/10 07:16:55;;;;;;;18.73;15.17;;;20.20;99.90;;;;;;5074205;28;20456;-60
2023/07/10 07:19:22;;;;;;;15.23;12.77;;;20.10;99.90;;;;;;5073761;28;20477;-59
2023/07/10 07:21:50;;;;;;;18.93;13.40;;;20.20;99.90;;;;;;5073856;28;20202;-59
2023/07/10 07:24:17;;;;;;;17.67;13.63;;;20.20;99.90;;;;;;5073564;28;20446;-60
2023/07/10 07:26:44;;;;;;;17.48;12.15;;;20.30;99.90;;;;;;5073447;28;20451;-61
2023/07/10 07:29:11;;;;;;;14.50;11.67;;;20.40;99.90;;;;;;5072987;28;20722;-61
2023/07/10 07:31:39;;;;;;;17.50;13.80;;;20.40;99.90;;;;;;5072796;28;20993;-59
2023/07/10 07:34:06;;;;;;;13.43;11.23;;;20.50;99.90;;;;;;5073295;28;20454;-60
2023/07/10 07:36:34;;;;;;;15.20;11.60;;;20.60;99.90;;;;;;5073134;28;20450;-60
2023/07/10 07:39:03;;;;;;;14.63;11.60;;;20.60;99.90;;;;;;5072997;28;20492;-59
2023/07/10 07:41:31;;;;;;;15.10;13.20;;;20.70;99.90;;;;;;5073119;28;20448;-59
2023/07/10 07:43:58;;;;;;;15.23;12.90;;;20.70;99.90;;;;;;5073050;28;20451;-59
2023/07/10 07:46:25;;;;;;;14.43;12.97;;;20.60;99.90;;;;;;5072922;28;20446;-61
2023/07/10 07:48:52;;;;;;;15.17;12.73;;;20.60;99.90;;;;;;5073008;28;20476;-60
2023/07/10 07:51:19;;;;;;;16.83;13.98;;;20.50;99.90;;;;;;5072710;28;20479;-61
2023/07/10 07:53:46;;;;;;;14.40;12.60;;;20.50;99.90;;;;;;5072900;28;20450;-60
2023/07/10 07:56:14;;;;;;;15.40;12.77;;;20.50;99.90;;;;;;5072593;28;20440;-60
2023/07/10 07:58:41;;;;;;;16.97;14.77;;;20.40;99.90;;;;;;5072712;28;20489;-61
2023/07/10 08:01:08;;;;;;;17.87;14.07;;;20.30;99.90;;;;;;5072948;28;20777;-60
2023/07/10 08:03:35;;;;;;;17.20;14.77;;;20.30;99.90;;;;;;5072967;28;20876;-62
2023/07/10 08:06:01;;;;;;;16.37;14.40;;;20.20;99.90;;;;;;5072854;28;20449;-59
2023/07/10 08:08:28;;;;;;;15.33;13.47;;;20.10;99.90;;;;;;5072729;28;20451;-59
2023/07/10 08:10:55;;;;;;;15.30;12.77;;;20.20;99.90;;;;;;5072544;28;20940;-62
2023/07/10 08:13:23;;;;;;;13.50;11.23;;;20.30;99.90;;;;;;5072644;28;20441;-60
2023/07/10 08:15:50;;;;;;;13.07;11.50;;;20.50;99.90;;;;;;5072756;28;20526;-60
2023/07/10 08:18:17;;;;;;;12.50;11.27;;;20.80;99.90;;;;;;5072978;28;20832;-60
2023/07/10 08:20:44;;;;;;;11.37;10.03;;;21.00;99.90;;;;;;5072848;28;20976;-60
2023/07/10 08:23:10;;;;;;;10.67;9.40;;;21.20;99.90;;;;;;5073366;28;20449;-60
2023/07/10 08:25:37;;;;;;;12.18;10.88;;;21.30;99.90;;;;;;5079238;28;20446;-60
2023/07/10 08:28:04;;;;;;;13.30;10.73;;;21.30;99.90;;;;;;5083870;28;20205;-60
2023/07/10 08:30:32;;;;;;;11.03;9.80;;;21.40;99.90;;;;;;5084220;28;20470;-60
2023/07/10 08:32:59;;;;;;;15.00;11.23;;;21.40;99.90;;;;;;5084485;28;20917;-59
2023/07/10 08:35:26;;;;;;;13.00;11.23;;;21.40;99.90;;;;;;5083777;28;20448;-59
2023/07/10 08:37:53;;;;;;;10.63;9.53;;;21.30;99.90;;;;;;5083091;28;20464;-61
2023/07/10 08:40:27;;;;;;;10.45;9.35;;;21.40;99.90;;;;;;5073770;28;20470;-61
2023/07/10 08:42:54;;;;;;;8.82;7.93;;;21.90;99.90;;;;;;5073253;28;20193;-61
2023/07/10 08:45:33;;;;;;;9.63;8.73;;;22.50;99.90;;;;;;5073080;28;20212;-60
2023/07/10 08:48:13;;;;;;;10.07;8.90;;;22.70;99.90;;;;;;5073244;28;20463;-59
2023/07/10 08:50:41;;;;;;;10.93;8.77;;;22.50;99.90;;;;;;5073070;28;20427;-61
2023/07/10 08:53:11;;;;;;;9.82;7.97;;;22.20;99.90;;;;;;5073017;28;20486;-60
2023/07/10 08:55:58;;;;;;;11.63;8.60;;;22.00;99.90;;;;;;5072772;28;20659;-59
2023/07/10 08:58:29;;;;;;;9.70;8.00;;;21.90;99.90;;;;;;5075607;28;20425;-61
2023/07/10 09:01:02;;;;;;;10.83;8.70;;;21.90;99.90;;;;;;5076467;28;20801;-59
2023/07/10 09:03:40;;;;;;;10.50;8.30;;;22.10;99.90;;;;;;5077771;28;20523;-59
2023/07/10 09:06:11;;;;;;;8.95;8.05;;;22.50;99.90;;;;;;5076407;28;20434;-59
2023/07/10 09:08:38;;;;;;;9.07;8.27;;;22.70;99.90;;;;;;5076017;28;20232;-60
2023/07/10 09:11:07;;;;;;;8.80;7.90;;;22.90;99.90;;;;;;5075760;28;20966;-60
2023/07/10 09:13:40;;;;;;;12.27;9.10;;;22.90;99.90;;;;;;5076306;28;20490;-58
2023/07/10 09:16:14;;;;;;;12.10;9.30;;;22.70;99.90;;;;;;5076837;28;20431;-59
2023/07/10 09:18:48;;;;;;;9.20;8.20;;;22.60;99.90;;;;;;5076179;28;20455;-60
2023/07/10 09:21:17;;;;;;;12.17;9.77;;;22.50;99.90;;;;;;5075997;28;20971;-58
2023/07/10 09:23:45;;;;;;;14.77;9.37;;;22.50;99.90;;;;;;5076042;28;20443;-60
2023/07/10 09:26:15;;;;;;;10.43;8.80;;;22.70;99.90;;;;;;5076203;28;20447;-59
2023/07/10 09:28:57;;;;;;;9.43;8.63;;;22.90;99.90;;;;;;5076264;28;20473;-60
2023/07/10 09:31:37;;;;;;;12.47;9.13;;;23.20;99.90;;;;;;5075734;28;20447;-60
2023/07/10 09:34:03;;;;;;;8.77;7.87;;;23.60;99.90;;;;;;5078721;28;20434;-59
2023/07/10 09:36:30;;;;;;;11.17;8.10;;;23.80;99.90;;;;;;5079473;28;20955;-60
2023/07/10 09:38:58;;;;;;;9.17;8.23;;;23.60;99.90;;;;;;5079811;28;20467;-60
2023/07/10 09:41:27;;;;;;;7.40;6.63;;;23.40;99.90;;;;;;5078337;28;20439;-60
2023/07/10 09:43:56;;;;;;;10.23;7.00;;;23.40;99.90;;;;;;5078495;28;20535;-61
2023/07/10 09:46:27;;;;;;;7.40;6.57;;;23.50;99.90;;;;;;5076621;28;20451;-59
2023/07/10 09:48:56;;;;;;;10.47;7.07;;;23.70;99.90;;;;;;5076110;28;20978;-60
2023/07/10 09:51:24;;;;;;;6.33;5.73;;;24.00;99.90;;;;;;5075954;28;20451;-62
2023/07/10 09:53:53;;;;;;;7.07;5.53;;;24.40;99.90;;;;;;5076185;28;20448;-60
2023/07/10 09:56:23;;;;;;;7.83;7.00;;;24.60;99.90;;;;;;5076004;28;20446;-59
2023/07/10 09:58:53;;;;;;;6.90;6.20;;;24.60;99.50;;;;;;5075898;28;20486;-61
2023/07/10 10:01:20;;;;;;;7.00;6.30;;;24.60;99.30;;;;;;5075343;28;20424;-61
2023/07/10 10:03:52;;;;;;;9.83;6.50;;;24.50;98.80;;;;;;5075189;28;20955;-60
2023/07/10 10:06:21;;;;;;;9.70;7.90;;;24.40;98.80;;;;;;5075345;28;20451;-60
2023/07/10 10:08:50;;;;;;;7.33;6.63;;;24.30;99.10;;;;;;5074971;28;20468;-59
2023/07/10 10:11:18;;;;;;;11.10;7.23;;;24.20;99.50;;;;;;5074955;28;20946;-60
2023/07/10 10:13:47;;;;;;;8.30;6.77;;;24.20;99.60;;;;;;5075390;28;20486;-59
2023/07/10 10:16:23;;;;;;;7.07;6.37;;;24.20;99.90;;;;;;5075234;28;20860;-60
2023/07/10 10:18:56;;;;;;;6.47;5.87;;;24.30;99.10;;;;;;5075036;28;20472;-61
2023/07/10 10:21:24;;;;;;;6.53;5.97;;;24.40;98.30;;;;;;5074828;28;20920;-60
2023/07/10 10:23:52;;;;;;;7.33;5.70;;;24.50;97.40;;;;;;5074748;28;20445;-61
2023/07/10 10:26:33;;;;;;;6.67;5.97;;;24.60;96.30;;;;;;5075414;28;20815;-61
2023/07/10 10:29:10;;;;;;;6.30;5.70;;;24.50;95.30;;;;;;5075234;28;20474;-59
2023/07/10 10:31:40;;;;;;;5.23;4.70;;;24.50;94.70;;;;;;5075598;28;20789;-61
2023/07/10 10:34:17;;;;;;;7.03;6.10;;;24.60;93.90;;;;;;5075761;28;20461;-59
2023/07/10 10:36:52;;;;;;;5.73;5.00;;;24.60;93.60;;;;;;5075161;28;20189;-60
2023/07/10 10:39:27;;;;;;;7.70;5.67;;;24.80;93.10;;;;;;5076608;28;20832;-59
2023/07/10 10:41:57;;;;;;;6.87;5.13;;;25.30;92.20;;;;;;5075496;28;20423;-60
2023/07/10 10:44:48;;;;;;;7.60;5.05;;;25.60;90.60;;;;;;5075286;28;20427;-60
2023/07/10 10:47:25;;;;;;;6.95;4.40;;;25.80;88.70;;;;;;5074874;28;20205;-59
2023/07/10 10:50:15;;;;;;;5.95;4.60;;;25.90;86.10;;;;;;5074473;28;20688;-59
2023/07/10 10:52:54;;;;;;;7.55;4.68;;;26.00;84.10;;;;;;5074669;28;20251;-59
2023/07/10 10:55:37;;;;;;;6.40;4.57;;;26.10;82.50;;;;;;5075029;28;20186;-59
2023/07/10 10:58:35;;;;;;;5.50;4.30;;;26.10;80.60;;;;;;5077073;28;20443;-56
2023/07/10 11:01:12;;;;;;;5.50;4.75;;;26.10;78.90;;;;;;5073596;28;20423;-60
2023/07/10 11:03:46;;;;;;;9.07;3.85;;;25.90;78.00;;;;;;5075072;28;20291;-60
2023/07/10 11:06:38;;;;;;;6.23;4.47;;;25.80;77.20;;;;;;5076009;28;20545;-58
2023/07/10 11:09:11;;;;;;;4.30;3.70;;;25.70;76.80;;;;;;5075936;28;20474;-59
2023/07/10 11:11:40;;;;;;;5.90;3.30;;;25.70;76.50;;;;;;5076192;28;20443;-59
2023/07/10 11:14:08;;;;;;;7.47;3.50;;;25.90;74.30;;;;;;5075068;28;20493;-59
2023/07/10 11:16:36;;;;;;;3.83;3.30;;;26.00;72.80;;;;;;5074818;28;20866;-59
2023/07/10 11:19:05;;;;;;;4.20;3.40;;;26.20;71.00;;;;;;5074298;28;20463;-59
2023/07/10 11:21:34;;;;;;;3.80;3.40;;;26.30;70.40;;;;;;5074003;28;20203;-59
2023/07/10 11:24:27;;;;;;;4.57;2.43;;;26.40;69.20;;;;;;5074022;28;20945;-59
2023/07/10 11:27:00;;;;;;;5.07;2.57;;;26.60;66.60;;;;;;5073791;28;20428;-59
2023/07/10 11:29:31;;;;;;;4.60;2.83;;;26.50;64.00;;;;;;5073929;28;20875;-58
2023/07/10 11:32:00;;;;;;;4.70;2.90;;;26.40;63.60;;;;;;5073500;28;20436;-59
2023/07/10 11:34:49;;;;;;;5.47;3.37;;;26.30;63.20;;;;;;5073863;28;20450;-57
2023/07/10 11:38:01;;;;;;;3.85;3.20;;;26.10;63.80;;;;;;5073308;28;20431;-58
2023/07/10 11:40:43;;;;;;;4.17;2.60;;;25.90;64.50;;;;;;5057761;28;20240;-59
2023/07/10 11:43:47;;;;;;;3.77;2.90;;;25.90;64.80;;;;;;5073232;28;20913;-58
2023/07/10 11:46:21;;;;;;;4.30;2.70;;;25.90;64.10;;;;;;5074286;28;20506;-59
2023/07/10 11:49:16;;;;;;;3.53;3.08;;;25.90;64.50;;;;;;5073371;28;20243;-60
2023/07/10 11:51:43;;;;;;;4.20;2.80;;;25.70;65.10;;;;;;5072997;28;20201;-57
2023/07/10 11:54:46;;;;;;;3.30;2.70;;;25.70;65.30;;;;;;5073708;28;20533;-59
2023/07/10 11:57:19;;;;;;;3.07;2.70;;;25.70;65.50;;;;;;5073550;28;20435;-58
2023/07/10 11:59:50;;;;;;;4.00;2.77;;;25.80;64.90;;;;;;5072941;28;20479;-58
2023/07/10 12:02:43;;;;;;;3.70;3.10;;;25.90;64.30;;;;;;5073160;28;20899;-59
2023/07/10 12:05:16;;;;;;;3.30;3.00;;;25.90;63.70;;;;;;5059290;28;20970;-58
2023/07/10 12:07:55;;;;;;;3.50;2.60;;;26.10;63.00;;;;;;5073358;28;20437;-59
2023/07/10 12:10:22;;;;;;;4.37;2.90;;;26.20;61.80;;;;;;5073264;28;20244;-58
2023/07/10 12:12:51;;;;;;;5.43;3.10;;;26.40;61.40;;;;;;5072384;28;20479;-59
2023/07/10 12:15:19;;;;;;;5.00;3.13;;;26.60;60.70;;;;;;5073376;28;20447;-60
2023/07/10 12:17:47;;;;;;;2.90;2.60;;;26.70;60.10;;;;;;5075231;28;20501;-58
2023/07/10 12:20:23;;;;;;;7.23;2.80;;;26.70;60.50;;;;;;5074335;28;20471;-59
2023/07/10 12:22:53;;;;;;;3.63;2.90;;;26.90;59.00;;;;;;5072796;28;20784;-57
2023/07/10 12:25:20;;;;;;;3.73;3.00;;;26.90;58.30;;;;;;5073325;28;20446;-59
2023/07/10 12:27:46;;;;;;;3.10;2.60;;;26.80;58.20;;;;;;5073209;28;20440;-59
2023/07/10 12:30:22;;;;;;;5.13;2.67;;;26.50;58.40;;;;;;5072871;28;20464;-59
2023/07/10 12:32:51;;;;;;;5.82;2.90;;;26.40;59.10;;;;;;5075712;28;20964;-59
2023/07/10 12:35:28;;;;;;;3.20;2.50;;;26.70;58.10;;;;;;5077591;28;20201;-58
2023/07/10 12:37:56;;;;;;;3.93;2.73;;;27.20;56.30;;;;;;5077570;28;20431;-58
2023/07/10 12:40:22;;;;;;;4.53;2.60;;;27.30;55.40;;;;;;5077390;28;20473;-60
2023/07/10 12:42:49;;;;;;;3.67;2.50;;;27.40;54.60;;;;;;5076913;28;20450;-58
2023/07/10 12:45:21;;;;;;;3.87;2.83;;;27.30;54.30;;;;;;5076786;28;20456;-59
2023/07/10 12:47:53;;;;;;;4.40;2.20;;;27.00;54.80;;;;;;5077743;28;20481;-57
2023/07/10 12:50:31;;;;;;;3.67;2.70;;;26.80;55.30;;;;;;5077008;28;20539;-58
2023/07/10 12:52:58;;;;;;;3.30;2.40;;;26.80;55.20;;;;;;5078935;28;20987;-59
2023/07/10 12:55:30;;;;;;;2.60;2.40;;;26.90;55.40;;;;;;5078503;28;20443;-58
2023/07/10 12:57:59;;;;;;;2.80;2.50;;;27.10;54.10;;;;;;5078589;28;21007;-59